»·PEaware :: N623LS 49X-L52

N623LS :: 49X-L52

FLIGHT INFORMATION

Flight Status: Arrived
Operator: Privately registered:
United States
More flights under this callsign
Pilot: Anonymous 18292 (18292)
Aircraft: MOONEY M-20 201 202 205 220 ATS MSE
(M20P)
More flights by this aircraft type
Origin: 49X Chemehuevi Valley
United States
Destination: L52 Oceano Co
United States
More flights between these airports :: More routes between these airports
Route:
File this flight plan on PilotEdge
Remarks:
Altitude:
(Current/Filed)
12,500ft
Speed:
(Current/Filed)
182kts
Departed: 15-Nov-18 08:58 PM
Arrived: 15-Nov-18 10:50 PM
Distance/Time
Traveled:
307nm/1:52
Distance/Time
To Go:
Arrived

Flight Plot

Page will automatically refresh every two minutes.


Map Options




Map Legend


Flown Route
Filed Route
Departure Airport
Arrival Airport
Navaid (VOR, NDB)
Fix

Horizontal Profiles

Position Reports

Time Latitude Longitude Heading Altitude Ground
Speed
15-Nov-18 20:43 34.529425 -114.430281 179 619ft 0kts
15-Nov-18 20:44 34.529425 -114.430281 179 619ft 0kts
15-Nov-18 20:45 34.529425 -114.430281 179 619ft 0kts
15-Nov-18 20:46 34.529425 -114.430281 179 619ft 0kts
15-Nov-18 20:47 34.529424 -114.430281 179 619ft 0kts
15-Nov-18 20:48 34.529424 -114.430281 179 619ft 0kts
15-Nov-18 20:49 34.529424 -114.430281 179 619ft 0kts
15-Nov-18 20:50 34.529424 -114.430281 179 619ft 0kts
15-Nov-18 20:51 34.529424 -114.430281 179 619ft 0kts
15-Nov-18 20:52 34.529414 -114.430281 179 619ft 0kts
15-Nov-18 20:53 34.529134 -114.430692 177 620ft 3kts
15-Nov-18 20:54 34.527364 -114.430974 179 621ft 10kts
15-Nov-18 20:55 34.523943 -114.431043 174 621ft 13kts
15-Nov-18 20:56 34.522066 -114.431187 270 621ft 0kts
15-Nov-18 20:57 34.522066 -114.431187 270 621ft 0kts
15-Nov-18 20:58 34.522066 -114.431187 270 621ft 0kts
15-Nov-18 20:59 34.522066 -114.431187 270 621ft 0kts
15-Nov-18 21:00 34.522132 -114.431978 358 623ft 0kts
15-Nov-18 21:01 34.540374 -114.431455 5 1032ft 95kts
15-Nov-18 21:02 34.568625 -114.447445 341 1976ft 120kts
15-Nov-18 21:03 34.597360 -114.470226 315 2962ft 131kts
15-Nov-18 21:04 34.618919 -114.508985 290 3776ft 142kts
15-Nov-18 21:05 34.618141 -114.558700 266 4542ft 149kts
15-Nov-18 21:06 34.614209 -114.609349 280 5337ft 152kts
15-Nov-18 21:07 34.623628 -114.656844 288 6118ft 151kts
15-Nov-18 21:08 34.636722 -114.709333 289 6382ft 178kts
15-Nov-18 21:09 34.646019 -114.769284 276 6385ft 184kts
15-Nov-18 21:10 34.650716 -114.830856 276 6435ft 184kts
15-Nov-18 21:11 34.654863 -114.893561 279 6319ft 191kts
15-Nov-18 21:12 34.662144 -114.956470 278 6310ft 187kts
15-Nov-18 21:13 34.668222 -115.019151 279 6310ft 186kts
15-Nov-18 21:14 34.673928 -115.081424 277 6408ft 181kts
15-Nov-18 21:15 34.676505 -115.147988 275 6001ft 192kts
15-Nov-18 21:16 34.679167 -115.209311 276 6420ft 178kts
15-Nov-18 21:17 34.682744 -115.270679 276 6403ft 184kts
15-Nov-18 21:18 34.686650 -115.332881 278 6401ft 185kts
15-Nov-18 21:19 34.690336 -115.394987 276 6454ft 184kts
15-Nov-18 21:20 34.694759 -115.457097 279 6473ft 184kts
15-Nov-18 21:21 34.704205 -115.518201 282 6493ft 183kts
15-Nov-18 21:22 34.711118 -115.580170 277 6452ft 187kts
15-Nov-18 21:23 34.715785 -115.627430 279 6472ft 185kts
15-Nov-18 21:24 34.720475 -115.667915 280 6486ft 184kts
15-Nov-18 21:25 34.729155 -115.723840 283 6483ft 184kts
15-Nov-18 21:26 34.740374 -115.784128 283 6498ft 183kts
15-Nov-18 21:27 34.744122 -115.845672 277 6513ft 183kts
15-Nov-18 21:28 34.750362 -115.907309 276 6508ft 184kts
15-Nov-18 21:29 34.751703 -115.969623 271 6501ft 185kts
15-Nov-18 21:30 34.751296 -116.032211 271 6496ft 185kts
15-Nov-18 21:31 34.754004 -116.094456 273 6501ft 184kts
15-Nov-18 21:32 34.757122 -116.156520 282 6489ft 184kts
15-Nov-18 21:33 34.767473 -116.217062 282 6514ft 183kts
15-Nov-18 21:34 34.779165 -116.277065 284 6519ft 182kts
15-Nov-18 21:35 34.785459 -116.338120 275 6539ft 182kts
15-Nov-18 21:36 34.787853 -116.399638 273 6541ft 181kts
15-Nov-18 21:37 34.788689 -116.460863 274 6550ft 181kts
15-Nov-18 21:38 34.788978 -116.522206 272 6561ft 181kts
15-Nov-18 21:39 34.785058 -116.582895 262 6576ft 182kts
15-Nov-18 21:40 34.778063 -116.643904 266 6578ft 182kts
15-Nov-18 21:41 34.773462 -116.701397 265 6585ft 182kts
15-Nov-18 21:42 34.763881 -116.762307 261 6705ft 183kts
15-Nov-18 21:43 34.755742 -116.821247 265 7409ft 168kts
15-Nov-18 21:44 34.750078 -116.876703 265 8130ft 162kts
15-Nov-18 21:45 34.746564 -116.930986 269 8726ft 162kts
15-Nov-18 21:46 34.743961 -116.984373 271 9423ft 156kts
15-Nov-18 21:47 34.739821 -117.037993 265 9958ft 163kts
15-Nov-18 21:48 34.734824 -117.093862 266 10389ft 167kts
15-Nov-18 21:49 34.729901 -117.153430 267 10458ft 190kts
15-Nov-18 21:50 34.726140 -117.217330 265 10499ft 194kts
15-Nov-18 21:51 34.719532 -117.281858 266 10513ft 190kts
15-Nov-18 21:52 34.714191 -117.345591 264 10480ft 188kts
15-Nov-18 21:53 34.703665 -117.407514 258 10506ft 186kts
15-Nov-18 21:54 34.693834 -117.467056 266 10473ft 187kts
15-Nov-18 21:55 34.688559 -117.529495 265 10488ft 185kts
15-Nov-18 21:56 34.684594 -117.591345 268 10461ft 186kts
15-Nov-18 21:57 34.677763 -117.652167 262 10473ft 186kts
15-Nov-18 21:58 34.669131 -117.713442 262 10457ft 186kts
15-Nov-18 21:59 34.661682 -117.764858 264 10459ft 185kts
15-Nov-18 22:00 34.655830 -117.834213 274 10425ft 185kts
15-Nov-18 22:01 34.650378 -117.885717 262 10431ft 185kts
15-Nov-18 22:02 34.643340 -117.957991 262 10419ft 185kts
15-Nov-18 22:03 34.636076 -118.008807 262 10460ft 183kts
15-Nov-18 22:04 34.631900 -118.063551 272 10389ft 186kts
15-Nov-18 22:05 34.641085 -118.122151 285 10456ft 184kts
15-Nov-18 22:06 34.656608 -118.190825 289 10540ft 179kts
15-Nov-18 22:07 34.670086 -118.238507 291 10538ft 179kts
15-Nov-18 22:08 34.684421 -118.296925 284 10515ft 182kts
15-Nov-18 22:09 34.695362 -118.356646 289 10512ft 181kts
15-Nov-18 22:10 34.709723 -118.415495 288 10496ft 182kts
15-Nov-18 22:11 34.723555 -118.474702 290 10495ft 182kts
15-Nov-18 22:12 34.737225 -118.533948 285 10487ft 183kts
15-Nov-18 22:13 34.747725 -118.594218 281 10507ft 182kts
15-Nov-18 22:14 34.758192 -118.652482 286 10508ft 182kts
15-Nov-18 22:15 34.772236 -118.710666 287 10497ft 182kts
15-Nov-18 22:16 34.785305 -118.770310 287 10490ft 182kts
15-Nov-18 22:17 34.797199 -118.830127 288 10487ft 182kts
15-Nov-18 22:18 34.813100 -118.888251 291 10498ft 180kts
15-Nov-18 22:19 34.829239 -118.946213 290 10487ft 181kts
15-Nov-18 22:20 34.842962 -119.002201 293 10477ft 181kts
15-Nov-18 22:21 34.861544 -119.058195 290 10479ft 180kts
15-Nov-18 22:22 34.874796 -119.117188 284 10471ft 181kts
15-Nov-18 22:23 34.883122 -119.177713 281 10463ft 181kts
15-Nov-18 22:24 34.890830 -119.238258 279 10469ft 181kts
15-Nov-18 22:25 34.897413 -119.298535 276 10468ft 181kts
15-Nov-18 22:26 34.906887 -119.357981 287 10473ft 179kts
15-Nov-18 22:27 34.919430 -119.416435 286 10480ft 178kts
15-Nov-18 22:28 34.929703 -119.475477 280 10488ft 178kts
15-Nov-18 22:29 34.938877 -119.533620 285 10486ft 177kts
15-Nov-18 22:30 34.949217 -119.592097 281 10494ft 177kts
15-Nov-18 22:31 34.957165 -119.650783 279 10496ft 177kts
15-Nov-18 22:32 34.965407 -119.709578 282 10504ft 176kts
15-Nov-18 22:33 34.975353 -119.767709 282 10381ft 176kts
15-Nov-18 22:34 34.984310 -119.825941 281 10015ft 173kts
15-Nov-18 22:35 34.994119 -119.883395 282 9436ft 173kts
15-Nov-18 22:36 35.004525 -119.940193 278 8875ft 172kts
15-Nov-18 22:37 35.007870 -119.997920 275 8342ft 170kts
15-Nov-18 22:38 35.015219 -120.054830 281 7798ft 169kts
15-Nov-18 22:39 35.023557 -120.111265 282 7329ft 169kts
15-Nov-18 22:40 35.033490 -120.167642 281 6805ft 175kts
15-Nov-18 22:41 35.043420 -120.224598 279 6357ft 170kts
15-Nov-18 22:42 35.050573 -120.281207 278 5709ft 160kts
15-Nov-18 22:43 35.058964 -120.332142 280 4701ft 150kts
15-Nov-18 22:44 35.067123 -120.381377 280 3708ft 147kts
15-Nov-18 22:45 35.069051 -120.430510 266 2735ft 145kts
15-Nov-18 22:46 35.066540 -120.478964 264 1895ft 136kts
15-Nov-18 22:47 35.063479 -120.523834 268 1539ft 132kts
15-Nov-18 22:48 35.063105 -120.567897 273 1292ft 129kts
15-Nov-18 22:49 35.066617 -120.611231 279 1121ft 127kts
15-Nov-18 22:50 35.077085 -120.644986 354 1002ft 106kts
15-Nov-18 22:51 35.086779 -120.619716 132 797ft 103kts
15-Nov-18 22:52 35.091456 -120.604806 327 360ft 80kts
15-Nov-18 22:53 35.101787 -120.622711 299 13ft 0kts
15-Nov-18 22:54 35.103374 -120.624227 284 13ft 6kts
15-Nov-18 22:55 35.103310 -120.624428 211 13ft 0kts

Navigation Log

Ident Type
Flight plan parsing failed, navigation log unavailable